Time;durP1;ratioP1;P1;durP2;ratioP2;P2;SDS_P1;SDS_P2;PMS_P1;PMS_P2;Temp;Humidity;BMP_temperature;BMP_pressure;BME280_temperature;BME280_humidity;BME280_pressure;Samples;Min_cycle;Max_cycle;Signal;HPM_P1;HPM_P2
2022/08/28 00:01:09;;;;;;;;;;;17.60;99.90;;;;;;5164341;28;19973;-66
2022/08/28 00:03:41;;;;;;;;;;;17.70;99.90;;;;;;5143129;28;20027;-68
2022/08/28 00:06:15;;;;;;;;;;;17.60;99.90;;;;;;5145370;28;20287;-68
2022/08/28 00:08:46;;;;;;;;;;;17.60;99.90;;;;;;5136301;28;20277;-66
2022/08/28 00:11:19;;;;;;;;;;;17.60;99.90;;;;;;5163488;28;19906;-66
2022/08/28 00:13:50;;;;;;;;;;;17.60;99.90;;;;;;5173208;28;19908;-67
2022/08/28 00:16:22;;;;;;;;;;;17.60;99.90;;;;;;5182091;28;19916;-65
2022/08/28 00:18:55;;;;;;;;;;;17.60;99.90;;;;;;5171783;28;20313;-69
2022/08/28 00:21:31;;;;;;;;;;;17.60;99.90;;;;;;5189341;28;19901;-68
2022/08/28 00:24:03;;;;;;;;;;;17.60;99.90;;;;;;5156912;28;20158;-67
2022/08/28 00:29:30;;;;;;;;;;;17.60;99.90;;;;;;5193722;28;19905;-67
2022/08/28 00:32:01;;;;;;;;;;;17.60;99.90;;;;;;5189777;28;19908;-66
2022/08/28 00:34:37;;;;;;;;;;;17.60;99.90;;;;;;5172642;28;20203;-66
2022/08/28 00:37:08;;;;;;;;;;;17.60;99.90;;;;;;5171490;28;19901;-63
2022/08/28 00:39:39;;;;;;;;;;;17.60;99.90;;;;;;5174566;28;19901;-65
2022/08/28 00:42:12;;;;;;;;;;;17.60;99.90;;;;;;5174238;28;20279;-66
2022/08/28 00:44:48;;;;;;;;;;;17.60;99.90;;;;;;5176200;28;19909;-64
2022/08/28 00:47:25;;;;;;;;;;;17.70;99.90;;;;;;5178662;28;19901;-66
2022/08/28 00:49:56;;;;;;;;;;;17.70;99.90;;;;;;5191498;28;19912;-68
2022/08/28 00:52:29;;;;;;;;;;;17.70;99.90;;;;;;5177157;28;19976;-67
2022/08/28 00:55:07;;;;;;;;;;;17.70;99.90;;;;;;5178904;28;19901;-64
2022/08/28 00:57:40;;;;;;;;;;;17.70;99.90;;;;;;5193638;28;20193;-65
2022/08/28 01:00:13;;;;;;;;;;;17.70;99.90;;;;;;5176953;28;19908;-66
2022/08/28 01:02:44;;;;;;;;;;;17.70;99.90;;;;;;5171355;28;20155;-66
2022/08/28 01:05:17;;;;;;;;;;;17.70;99.90;;;;;;5170109;28;19917;-63
2022/08/28 01:07:56;;;;;;;;;;;17.80;99.90;;;;;;5184552;28;19901;-68
2022/08/28 01:10:31;;;;;;;;;;;17.80;99.90;;;;;;5178896;28;20209;-67
2022/08/28 01:13:02;;;;;;;;;;;17.80;99.90;;;;;;5176648;28;19901;-65
2022/08/28 01:15:38;;;;;;;;;;;17.80;99.90;;;;;;5187466;28;20174;-64
2022/08/28 01:18:12;;;;;;;;;;;17.80;99.90;;;;;;5196836;28;19908;-67
2022/08/28 01:20:50;;;;;;;;;;;17.80;99.90;;;;;;5166888;28;20309;-67
2022/08/28 01:23:21;;;;;;;;;;;17.80;99.90;;;;;;5195176;28;19913;-67
2022/08/28 01:25:52;;;;;;;;;;;17.80;99.90;;;;;;5180688;28;20175;-66
2022/08/28 01:28:23;;;;;;;;;;;17.80;99.90;;;;;;5198634;28;19901;-65
2022/08/28 01:30:54;;;;;;;;;;;17.80;99.90;;;;;;5183633;28;20185;-66
2022/08/28 01:33:25;;;;;;;;;;;17.80;99.90;;;;;;5197883;28;19901;-64
2022/08/28 01:35:58;;;;;;;;;;;17.80;99.90;;;;;;5191703;28;19905;-68
2022/08/28 01:38:29;;;;;;;;;;;17.70;99.90;;;;;;5197191;28;19901;-66
2022/08/28 01:41:03;;;;;;;;;;;17.70;99.90;;;;;;5198642;28;19907;-64
2022/08/28 01:43:35;;;;;;;;;;;17.80;99.90;;;;;;5198121;28;19935;-65
2022/08/28 01:46:09;;;;;;;;;;;17.80;99.90;;;;;;5198256;28;19901;-68
2022/08/28 01:48:44;;;;;;;;;;;17.80;99.90;;;;;;5198289;28;20156;-68
2022/08/28 01:51:17;;;;;;;;;;;17.80;99.90;;;;;;5185690;28;19905;-65
2022/08/28 01:53:48;;;;;;;;;;;17.80;99.90;;;;;;5209541;28;20237;-65
2022/08/28 01:56:22;;;;;;;;;;;17.90;99.90;;;;;;5217187;28;19927;-65
2022/08/28 01:58:56;;;;;;;;;;;17.90;99.90;;;;;;5183364;28;20099;-67
2022/08/28 02:01:29;;;;;;;;;;;17.90;99.90;;;;;;5211766;28;19901;-68
2022/08/28 02:04:06;;;;;;;;;;;17.90;99.90;;;;;;5178959;28;19909;-63
2022/08/28 02:06:40;;;;;;;;;;;17.90;99.90;;;;;;5184372;28;19912;-66
2022/08/28 02:09:14;;;;;;;;;;;17.90;99.90;;;;;;5173933;28;19900;-65
2022/08/28 02:11:48;;;;;;;;;;;17.90;99.90;;;;;;5175982;28;19911;-67
2022/08/28 02:14:19;;;;;;;;;;;18.00;99.90;;;;;;5190710;28;20149;-66
2022/08/28 02:16:51;;;;;;;;;;;18.00;99.90;;;;;;5176120;28;20083;-66
2022/08/28 02:19:25;;;;;;;;;;;18.00;99.90;;;;;;5190878;28;20217;-63
2022/08/28 02:21:56;;;;;;;;;;;18.00;99.90;;;;;;5176824;28;20012;-65
2022/08/28 02:24:27;;;;;;;;;;;18.00;99.90;;;;;;5178822;28;19935;-67
2022/08/28 02:26:58;;;;;;;;;;;18.00;99.90;;;;;;5197443;28;20217;-65
2022/08/28 02:29:29;;;;;;;;;;;18.00;99.90;;;;;;5178519;28;19919;-64
2022/08/28 02:32:04;;;;;;;;;;;18.10;99.90;;;;;;5178763;28;19909;-65
2022/08/28 02:34:39;;;;;;;;;;;18.20;99.90;;;;;;5183678;28;19980;-64
2022/08/28 02:37:12;;;;;;;;;;;18.40;99.90;;;;;;5197326;28;19905;-63
2022/08/28 02:39:43;;;;;;;;;;;18.50;99.90;;;;;;5195144;28;19905;-64
2022/08/28 02:42:14;;;;;;;;;;;18.60;99.90;;;;;;5194113;28;19901;-64
2022/08/28 02:44:45;;;;;;;;;;;18.60;99.90;;;;;;5178453;28;20183;-65
2022/08/28 02:47:17;;;;;;;;;;;18.60;99.90;;;;;;5197816;28;20170;-64
2022/08/28 02:49:48;;;;;;;;;;;18.60;99.90;;;;;;5196402;28;19901;-64
2022/08/28 02:52:23;;;;;;;;;;;18.60;99.90;;;;;;5195470;28;19976;-67
2022/08/28 02:54:54;;;;;;;;;;;18.50;99.90;;;;;;5193813;28;20007;-67
2022/08/28 02:57:28;;;;;;;;;;;18.50;99.90;;;;;;5196642;28;19915;-65
2022/08/28 03:00:00;;;;;;;;;;;18.40;99.90;;;;;;5179449;28;20170;-63
2022/08/28 03:02:33;;;;;;;;;;;18.40;99.90;;;;;;5195347;28;19901;-65
2022/08/28 03:05:07;;;;;;;;;;;18.30;99.90;;;;;;5180902;28;19940;-65
2022/08/28 03:07:38;;;;;;;;;;;18.30;99.90;;;;;;5151915;28;20356;-67
2022/08/28 03:10:11;;;;;;;;;;;18.30;99.90;;;;;;5158411;28;20311;-64
2022/08/28 03:12:43;;;;;;;;;;;18.30;99.90;;;;;;5194541;28;19912;-65
2022/08/28 03:15:15;;;;;;;;;;;18.20;99.90;;;;;;5196438;28;20179;-66
2022/08/28 03:17:47;;;;;;;;;;;18.20;99.90;;;;;;5196300;28;19907;-65
2022/08/28 03:20:18;;;;;;;;;;;18.20;99.90;;;;;;5197257;28;19901;-67
2022/08/28 03:25:41;;;;;;;;;;;18.20;99.90;;;;;;5195387;28;19909;-66
2022/08/28 03:28:17;;;;;;;;;;;18.20;99.90;;;;;;5195380;28;20288;-64
2022/08/28 03:30:49;;;;;;;;;;;18.20;99.90;;;;;;5192595;28;19901;-63
2022/08/28 03:33:23;;;;;;;;;;;18.20;99.90;;;;;;5162171;28;19901;-65
2022/08/28 03:35:58;;;;;;;;;;;18.30;99.90;;;;;;5176983;28;20387;-62
2022/08/28 03:38:37;;;;;;;;;;;18.30;99.90;;;;;;5176106;28;19905;-64
2022/08/28 03:41:12;;;;;;;;;;;18.40;99.90;;;;;;5195398;28;19901;-64
2022/08/28 03:43:44;;;;;;;;;;;18.30;99.90;;;;;;5195095;28;19909;-65
2022/08/28 03:46:16;;;;;;;;;;;18.30;99.90;;;;;;5198450;28;19923;-67
2022/08/28 03:48:51;;;;;;;;;;;18.40;99.90;;;;;;5196208;28;20197;-65
2022/08/28 03:51:24;;;;;;;;;;;18.40;99.90;;;;;;5177300;28;19901;-64
2022/08/28 03:53:57;;;;;;;;;;;18.40;99.90;;;;;;5194870;28;19927;-68
2022/08/28 03:56:28;;;;;;;;;;;18.30;99.90;;;;;;5195332;28;20167;-63
2022/08/28 03:59:00;;;;;;;;;;;18.40;99.90;;;;;;5194401;28;19901;-63
2022/08/28 04:01:36;;;;;;;;;;;18.20;99.90;;;;;;5195501;28;19907;-65
2022/08/28 04:04:08;;;;;;;;;;;18.20;99.90;;;;;;5194160;28;20234;-64
2022/08/28 04:06:42;;;;;;;;;;;18.10;99.90;;;;;;5184857;28;19919;-64
2022/08/28 04:09:13;;;;;;;;;;;18.10;99.90;;;;;;5195958;28;20375;-64
2022/08/28 04:11:46;;;;;;;;;;;18.10;99.90;;;;;;5193905;28;20093;-66
2022/08/28 04:14:20;;;;;;;;;;;18.10;99.90;;;;;;5196095;28;20182;-64
2022/08/28 04:16:50;;;;;;;;;;;18.10;99.90;;;;;;5196582;28;20191;-63
2022/08/28 04:19:24;;;;;;;;;;;18.10;99.90;;;;;;5193892;28;19959;-63
2022/08/28 04:21:55;;;;;;;;;;;18.10;99.90;;;;;;5196286;28;19907;-64
2022/08/28 04:24:29;;;;;;;;;;;18.00;99.90;;;;;;5180825;28;19920;-62
2022/08/28 04:27:02;;;;;;;;;;;18.10;99.90;;;;;;5185070;28;19915;-63
2022/08/28 04:29:33;;;;;;;;;;;18.10;99.90;;;;;;5196439;28;19901;-63
2022/08/28 04:32:06;;;;;;;;;;;18.10;99.90;;;;;;5194623;28;19908;-64
2022/08/28 04:34:37;;;;;;;;;;;18.10;99.90;;;;;;5195906;28;19907;-65
2022/08/28 04:37:11;;;;;;;;;;;18.10;99.90;;;;;;5211544;28;20201;-68
2022/08/28 04:39:44;;;;;;;;;;;18.10;99.90;;;;;;5196318;28;19905;-64
2022/08/28 04:42:20;;;;;;;;;;;18.00;99.90;;;;;;5179726;28;20135;-64
2022/08/28 04:44:55;;;;;;;;;;;18.10;99.90;;;;;;5192086;28;19909;-65
2022/08/28 04:47:29;;;;;;;;;;;18.10;99.90;;;;;;5194983;28;20157;-66
2022/08/28 04:50:00;;;;;;;;;;;18.10;99.90;;;;;;5178299;28;19908;-65
2022/08/28 04:52:31;;;;;;;;;;;18.20;99.90;;;;;;5140766;28;19908;-66
2022/08/28 04:55:02;;;;;;;;;;;18.20;99.90;;;;;;5188127;28;19920;-64
2022/08/28 04:57:34;;;;;;;;;;;18.30;99.90;;;;;;5192553;28;20179;-65
2022/08/28 05:00:06;;;;;;;;;;;18.30;99.90;;;;;;5193534;28;20110;-63
2022/08/28 05:02:37;;;;;;;;;;;18.40;99.90;;;;;;5194977;28;19901;-65
2022/08/28 05:05:11;;;;;;;;;;;18.50;99.90;;;;;;5182704;28;19913;-64
2022/08/28 05:07:43;;;;;;;;;;;18.60;99.90;;;;;;5193393;28;19901;-65
2022/08/28 05:10:14;;;;;;;;;;;18.70;99.90;;;;;;5193194;28;20154;-66
2022/08/28 05:12:45;;;;;;;;;;;18.80;99.90;;;;;;5192589;28;19912;-64
2022/08/28 05:15:16;;;;;;;;;;;18.80;99.90;;;;;;5173999;28;19916;-64
2022/08/28 05:17:47;;;;;;;;;;;19.00;99.90;;;;;;5194971;28;19905;-66
2022/08/28 05:20:18;;;;;;;;;;;18.90;99.90;;;;;;5176969;28;20004;-65
2022/08/28 05:22:53;;;;;;;;;;;19.00;99.90;;;;;;5196431;28;20087;-63
2022/08/28 05:25:24;;;;;;;;;;;19.00;99.90;;;;;;5192244;28;20106;-64
2022/08/28 05:27:55;;;;;;;;;;;19.10;99.90;;;;;;5194922;28;20089;-63
2022/08/28 05:30:26;;;;;;;;;;;19.30;99.90;;;;;;5195364;28;19947;-64
2022/08/28 05:33:00;;;;;;;;;;;19.40;99.90;;;;;;5180658;28;20102;-64
2022/08/28 05:35:35;;;;;;;;;;;19.30;99.90;;;;;;5197649;28;19905;-65
2022/08/28 05:38:06;;;;;;;;;;;19.30;99.90;;;;;;5199568;28;19901;-65
2022/08/28 05:40:48;;;;;;;;;;;19.40;99.90;;;;;;5198539;28;19911;-65
2022/08/28 05:43:21;;;;;;;;;;;19.60;99.90;;;;;;5198370;28;20221;-63
2022/08/28 05:45:57;;;;;;;;;;;19.70;99.90;;;;;;5180446;28;19909;-63
2022/08/28 05:48:30;;;;;;;;;;;19.70;99.90;;;;;;5198243;28;19901;-65
2022/08/28 05:51:04;;;;;;;;;;;19.70;99.90;;;;;;5201207;28;19907;-66
2022/08/28 05:53:39;;;;;;;;;;;19.70;99.90;;;;;;5195391;28;19915;-65
2022/08/28 05:56:14;;;;;;;;;;;19.90;99.90;;;;;;5177926;28;20103;-65
2022/08/28 05:58:48;;;;;;;;;;;20.00;99.90;;;;;;5196656;28;19905;-65
2022/08/28 06:01:26;;;;;;;;;;;19.90;99.90;;;;;;5198371;28;20098;-66
2022/08/28 06:04:02;;;;;;;;;;;20.00;99.90;;;;;;5197429;28;19915;-63
2022/08/28 06:06:39;;;;;;;;;;;20.10;99.90;;;;;;5187955;28;19909;-65
2022/08/28 06:09:16;;;;;;;;;;;20.30;99.90;;;;;;5198187;28;20171;-65
2022/08/28 06:11:48;;;;;;;;;;;20.50;99.90;;;;;;5196695;28;19901;-63
2022/08/28 06:14:19;;;;;;;;;;;20.70;99.90;;;;;;5179120;28;19909;-64
2022/08/28 06:16:51;;;;;;;;;;;20.80;99.90;;;;;;5163046;28;19939;-64
2022/08/28 06:19:23;;;;;;;;;;;20.80;99.90;;;;;;5197778;28;20185;-63
2022/08/28 06:21:59;;;;;;;;;;;20.80;99.90;;;;;;5197203;28;19901;-63
2022/08/28 06:24:33;;;;;;;;;;;20.90;99.90;;;;;;5197224;28;19917;-67
2022/08/28 06:27:04;;;;;;;;;;;20.90;99.90;;;;;;5182148;28;20186;-65
2022/08/28 06:29:35;;;;;;;;;;;20.90;99.90;;;;;;5197837;28;19976;-63
2022/08/28 06:32:10;;;;;;;;;;;20.90;99.90;;;;;;5181796;28;19926;-68
2022/08/28 06:34:43;;;;;;;;;;;21.00;99.90;;;;;;5198022;28;19901;-63
2022/08/28 06:37:14;;;;;;;;;;;21.10;99.90;;;;;;5196022;28;20106;-63
2022/08/28 06:39:50;;;;;;;;;;;21.30;99.90;;;;;;5196544;28;19908;-63
2022/08/28 06:42:24;;;;;;;;;;;21.40;99.90;;;;;;5184254;28;20255;-64
2022/08/28 06:44:56;;;;;;;;;;;21.40;99.90;;;;;;5199500;28;19912;-64
2022/08/28 06:47:32;;;;;;;;;;;21.30;99.90;;;;;;5196333;28;20067;-64
2022/08/28 06:50:03;;;;;;;;;;;21.60;99.90;;;;;;5196303;28;20212;-66
2022/08/28 06:52:37;;;;;;;;;;;22.10;99.90;;;;;;5197097;28;19901;-67
2022/08/28 06:55:08;;;;;;;;;;;22.50;99.90;;;;;;5196954;28;19911;-65
2022/08/28 06:57:40;;;;;;;;;;;22.90;99.90;;;;;;5196196;28;19901;-65
2022/08/28 07:00:12;;;;;;;;;;;23.30;99.90;;;;;;5195554;28;20229;-64
2022/08/28 07:02:43;;;;;;;;;;;23.30;99.90;;;;;;5177214;28;20134;-65
2022/08/28 07:05:14;;;;;;;;;;;23.40;99.90;;;;;;5186693;28;19956;-65
2022/08/28 07:07:47;;;;;;;;;;;23.70;99.90;;;;;;5173269;28;20090;-66
2022/08/28 07:10:21;;;;;;;;;;;23.70;99.90;;;;;;5184280;28;19901;-65
2022/08/28 07:12:54;;;;;;;;;;;23.60;99.90;;;;;;5194810;28;19911;-65
2022/08/28 07:15:25;;;;;;;;;;;23.40;99.90;;;;;;5196391;28;20074;-65
2022/08/28 07:18:01;;;;;;;;;;;23.40;99.90;;;;;;5178010;28;20163;-64
2022/08/28 07:20:35;;;;;;;;;;;23.30;99.90;;;;;;5179068;28;19909;-66
2022/08/28 07:23:08;;;;;;;;;;;23.10;99.90;;;;;;5193200;28;19905;-66
2022/08/28 07:25:40;;;;;;;;;;;23.30;99.90;;;;;;5195571;28;19908;-65
2022/08/28 07:28:11;;;;;;;;;;;23.40;99.90;;;;;;5198422;28;19908;-63
2022/08/28 07:30:42;;;;;;;;;;;23.40;99.90;;;;;;5196688;28;20162;-65
2022/08/28 07:33:15;;;;;;;;;;;23.40;99.90;;;;;;5194996;28;19951;-65
2022/08/28 07:35:52;;;;;;;;;;;23.10;99.90;;;;;;5178850;28;19901;-63
2022/08/28 07:38:24;;;;;;;;;;;23.00;99.90;;;;;;5178765;28;19901;-65
2022/08/28 07:40:58;;;;;;;;;;;23.20;99.90;;;;;;5194581;28;20060;-65
2022/08/28 07:46:23;;;;;;;;;;;23.10;99.90;;;;;;5195376;28;19913;-67
2022/08/28 07:48:57;;;;;;;;;;;22.80;99.90;;;;;;5193339;28;20090;-64
2022/08/28 07:51:30;;;;;;;;;;;22.90;99.90;;;;;;5196878;28;20199;-64
2022/08/28 07:54:04;;;;;;;;;;;22.90;99.90;;;;;;5195032;28;19924;-63
2022/08/28 07:56:39;;;;;;;;;;;23.10;99.90;;;;;;5195321;28;20107;-65
2022/08/28 07:59:14;;;;;;;;;;;22.90;99.90;;;;;;5196571;28;20120;-65
2022/08/28 08:01:46;;;;;;;;;;;23.10;99.90;;;;;;5194022;28;19907;-65
2022/08/28 08:04:27;;;;;;;;;;;23.30;99.90;;;;;;5186019;28;19939;-66
2022/08/28 08:07:00;;;;;;;;;;;23.30;99.90;;;;;;5194757;28;19907;-62
2022/08/28 08:09:35;;;;;;;;;;;23.00;99.90;;;;;;5189258;28;20106;-67
2022/08/28 08:12:09;;;;;;;;;;;22.70;99.90;;;;;;5196491;28;20210;-65
2022/08/28 08:14:41;;;;;;;;;;;22.50;99.90;;;;;;5179970;28;19901;-63
2022/08/28 08:17:12;;;;;;;;;;;22.60;99.90;;;;;;5179063;28;20217;-64
2022/08/28 08:19:43;;;;;;;;;;;22.80;99.90;;;;;;5193860;28;19958;-66
2022/08/28 08:22:14;;;;;;;;;;;23.20;99.90;;;;;;5177243;28;19901;-65
2022/08/28 08:24:45;;;;;;;;;;;23.00;99.90;;;;;;5195341;28;19909;-65
2022/08/28 08:27:19;;;;;;;;;;;22.90;99.90;;;;;;5198408;28;20319;-64
2022/08/28 08:29:50;;;;;;;;;;;23.00;99.90;;;;;;5161492;28;19905;-65
2022/08/28 08:32:20;;;;;;;;;;;22.70;99.90;;;;;;5177595;28;19911;-65
2022/08/28 08:34:56;;;;;;;;;;;22.70;99.90;;;;;;5195477;28;19901;-65
2022/08/28 08:37:29;;;;;;;;;;;22.80;99.90;;;;;;5187704;28;20189;-66
2022/08/28 08:40:00;;;;;;;;;;;22.90;99.90;;;;;;5208744;28;20008;-64
2022/08/28 08:42:32;;;;;;;;;;;22.90;99.90;;;;;;5198317;28;19907;-65
2022/08/28 08:45:04;;;;;;;;;;;22.80;99.90;;;;;;5216642;28;19935;-66
2022/08/28 08:47:42;;;;;;;;;;;23.00;99.90;;;;;;5198511;28;19908;-66
2022/08/28 08:50:18;;;;;;;;;;;22.80;99.90;;;;;;5172791;28;19958;-64
2022/08/28 08:52:49;;;;;;;;;;;22.80;99.90;;;;;;5173979;28;20119;-65
2022/08/28 08:55:27;;;;;;;;;;;22.60;99.90;;;;;;5189186;28;19905;-64
2022/08/28 08:58:03;;;;;;;;;;;22.70;99.90;;;;;;5195162;28;19901;-63
2022/08/28 09:00:53;;;;;;;;;;;22.30;99.90;;;;;;5177965;28;19931;-63
2022/08/28 09:03:33;;;;;;;;;;;22.10;99.90;;;;;;5175082;28;19908;-65
2022/08/28 09:06:05;;;;;;;;;;;22.20;99.90;;;;;;5178579;28;19920;-64
2022/08/28 09:08:43;;;;;;;;;;;22.10;99.90;;;;;;5194775;28;19905;-66
2022/08/28 09:11:20;;;;;;;;;;;22.20;99.90;;;;;;5196660;28;19905;-65
2022/08/28 09:13:58;;;;;;;;;;;22.20;99.90;;;;;;5200294;28;19908;-63
2022/08/28 09:16:34;;;;;;;;;;;22.00;99.90;;;;;;5183316;28;19909;-65
2022/08/28 09:19:06;;;;;;;;;;;21.90;99.90;;;;;;5183573;28;19901;-63
2022/08/28 09:21:41;;;;;;;;;;;22.00;99.90;;;;;;5209605;28;20216;-64
2022/08/28 09:24:26;;;;;;;;;;;21.90;99.90;;;;;;5219166;28;19901;-65
2022/08/28 09:27:02;;;;;;;;;;;21.80;99.90;;;;;;5198876;28;20183;-64
2022/08/28 09:29:41;;;;;;;;;;;21.90;99.90;;;;;;5197357;28;19905;-64
2022/08/28 09:32:24;;;;;;;;;;;22.00;99.90;;;;;;5178482;28;19907;-64
2022/08/28 09:34:58;;;;;;;;;;;22.10;99.90;;;;;;5186418;28;19901;-63
2022/08/28 09:37:33;;;;;;;;;;;22.10;99.90;;;;;;5198489;28;19901;-64
2022/08/28 09:40:22;;;;;;;;;;;22.40;99.90;;;;;;5198918;28;20239;-64
2022/08/28 09:45:54;;;;;;;;;;;23.80;99.90;;;;;;5196564;28;19909;-66
2022/08/28 09:48:38;;;;;;;;;;;24.40;99.90;;;;;;5196350;28;19901;-64
2022/08/28 09:51:12;;;;;;;;;;;24.80;99.90;;;;;;5180410;28;19905;-64
2022/08/28 09:53:55;;;;;;;;;;;24.80;99.90;;;;;;5198565;28;19901;-63
2022/08/28 09:56:32;;;;;;;;;;;25.10;99.90;;;;;;5199772;28;20126;-65
2022/08/28 09:59:17;;;;;;;;;;;24.70;99.90;;;;;;5196629;28;19911;-63
2022/08/28 10:01:54;;;;;;;;;;;25.20;99.90;;;;;;5198603;28;19915;-63
2022/08/28 10:04:40;;;;;;;;;;;25.20;99.90;;;;;;5188038;28;19911;-62
2022/08/28 10:07:30;;;;;;;;;;;24.70;99.90;;;;;;5197097;28;19901;-62
2022/08/28 10:10:19;;;;;;;;;;;24.50;99.90;;;;;;5198264;28;20090;-62
2022/08/28 10:13:09;;;;;;;;;;;24.30;99.90;;;;;;5193952;28;19901;-62
2022/08/28 10:15:40;;;;;;;;;;;24.10;99.90;;;;;;5199024;28;20283;-63
2022/08/28 10:18:24;;;;;;;;;;;24.10;99.90;;;;;;5197192;28;20172;-63
2022/08/28 10:21:01;;;;;;;;;;;23.60;99.90;;;;;;5198460;28;19900;-62
2022/08/28 10:23:47;;;;;;;;;;;23.70;99.90;;;;;;5200082;28;19916;-62
2022/08/28 10:26:37;;;;;;;;;;;24.00;99.90;;;;;;5198511;28;19939;-62
2022/08/28 10:29:40;;;;;;;;;;;24.40;99.90;;;;;;5200733;28;20318;-62
2022/08/28 10:32:22;;;;;;;;;;;24.10;99.90;;;;;;5168090;28;19901;-63
2022/08/28 10:35:01;;;;;;;;;;;23.60;99.90;;;;;;5193901;28;20213;-63
2022/08/28 10:37:45;;;;;;;;;;;23.60;99.90;;;;;;5197712;28;19905;-63
2022/08/28 10:40:28;;;;;;;;;;;23.50;99.90;;;;;;5195347;28;19902;-62
2022/08/28 10:43:11;;;;;;;;;;;23.20;99.90;;;;;;5192115;28;20286;-62
2022/08/28 10:45:45;;;;;;;;;;;23.00;99.90;;;;;;5193480;28;19909;-62
2022/08/28 10:48:54;;;;;;;;;;;23.30;99.90;;;;;;5197774;28;20114;-62
2022/08/28 10:51:37;;;;;;;;;;;23.40;99.90;;;;;;5131579;28;19949;-63
2022/08/28 10:54:16;;;;;;;;;;;23.90;99.90;;;;;;5117183;28;20207;-64
2022/08/28 10:56:55;;;;;;;;;;;24.40;99.90;;;;;;5133685;28;20163;-62
2022/08/28 10:59:32;;;;;;;;;;;24.30;99.90;;;;;;5120328;28;19910;-62
2022/08/28 11:02:04;;;;;;;;;;;24.50;99.90;;;;;;5133465;28;19924;-63
2022/08/28 11:04:35;;;;;;;;;;;24.70;99.90;;;;;;5124339;28;19906;-64
2022/08/28 11:07:09;;;;;;;;;;;25.60;99.90;;;;;;5133305;28;20072;-62
2022/08/28 11:09:44;;;;;;;;;;;25.80;99.90;;;;;;5132447;28;19915;-62
2022/08/28 11:12:18;;;;;;;;;;;25.40;99.90;;;;;;5118792;28;19913;-63
2022/08/28 11:14:50;;;;;;;;;;;25.90;99.90;;;;;;5133357;28;19917;-64
2022/08/28 11:17:30;;;;;;;;;;;27.40;99.90;;;;;;5116358;28;20116;-63
2022/08/28 11:20:01;;;;;;;;;;;28.40;99.90;;;;;;5133131;28;19908;-62
2022/08/28 11:22:40;;;;;;;;;;;28.60;99.90;;;;;;5155319;28;19937;-62
2022/08/28 11:25:17;;;;;;;;;;;29.20;99.90;;;;;;5194363;28;19913;-63
2022/08/28 11:28:07;;;;;;;;;;;29.50;99.90;;;;;;5196318;28;19927;-62
2022/08/28 11:30:41;;;;;;;;;;;29.10;99.90;;;;;;5196943;28;20225;-63
2022/08/28 11:33:31;;;;;;;;;;;29.20;99.90;;;;;;5199401;28;20149;-63
2022/08/28 11:36:04;;;;;;;;;;;29.40;99.90;;;;;;5197194;28;19901;-63
2022/08/28 11:38:38;;;;;;;;;;;29.40;99.90;;;;;;5196058;28;20133;-63
2022/08/28 11:41:09;;;;;;;;;;;29.50;99.90;;;;;;5195551;28;19907;-63
2022/08/28 11:43:43;;;;;;;;;;;30.50;99.90;;;;;;5194793;28;19901;-64
2022/08/28 11:46:25;;;;;;;;;;;31.00;99.90;;;;;;5195604;28;19919;-64
2022/08/28 11:49:01;;;;;;;;;;;31.60;99.90;;;;;;5198813;28;20106;-65
2022/08/28 11:51:50;;;;;;;;;;;31.30;99.90;;;;;;5195153;28;19900;-64
2022/08/28 11:54:30;;;;;;;;;;;30.10;99.90;;;;;;5196964;28;19901;-63
2022/08/28 11:57:04;;;;;;;;;;;29.20;99.90;;;;;;5196790;28;20102;-62
2022/08/28 11:59:42;;;;;;;;;;;29.30;99.90;;;;;;5196344;28;19908;-64
2022/08/28 12:02:32;;;;;;;;;;;30.30;99.90;;;;;;5196658;28;19905;-64
2022/08/28 12:05:07;;;;;;;;;;;31.20;99.90;;;;;;5186031;28;20185;-64
2022/08/28 12:07:41;;;;;;;;;;;30.80;99.90;;;;;;5195043;28;20106;-63
2022/08/28 12:10:21;;;;;;;;;;;31.20;99.90;;;;;;5195623;28;19901;-63
2022/08/28 12:13:03;;;;;;;;;;;29.40;99.90;;;;;;5180838;28;20386;-63
2022/08/28 12:15:37;;;;;;;;;;;29.40;99.90;;;;;;5195818;28;20398;-64
2022/08/28 12:18:13;;;;;;;;;;;30.30;99.90;;;;;;5195580;28;19911;-63
2022/08/28 12:21:04;;;;;;;;;;;31.10;99.90;;;;;;5194948;28;20201;-64
2022/08/28 12:23:56;;;;;;;;;;;31.20;99.90;;;;;;5196906;28;19907;-65
2022/08/28 12:26:27;;;;;;;;;;;31.50;99.90;;;;;;5196260;28;19909;-63
2022/08/28 12:29:17;;;;;;;;;;;29.50;99.90;;;;;;5203322;28;19905;-63
2022/08/28 12:32:13;;;;;;;;;;;29.30;99.90;;;;;;5196683;28;19901;-65
2022/08/28 12:34:48;;;;;;;;;;;29.70;99.90;;;;;;5199328;28;20178;-64
2022/08/28 12:37:19;;;;;;;;;;;30.40;99.90;;;;;;5193355;28;19939;-63
2022/08/28 12:39:53;;;;;;;;;;;29.80;99.90;;;;;;5196331;28;19901;-63
2022/08/28 12:42:31;;;;;;;;;;;29.10;99.90;;;;;;5197825;28;19901;-65
2022/08/28 12:45:07;;;;;;;;;;;29.90;99.90;;;;;;5164935;28;19936;-63
2022/08/28 12:47:42;;;;;;;;;;;30.30;99.90;;;;;;5166015;28;19915;-63
2022/08/28 12:50:21;;;;;;;;;;;28.60;99.90;;;;;;5195433;28;20445;-63
2022/08/28 12:52:53;;;;;;;;;;;28.10;99.90;;;;;;5195537;28;19907;-63
2022/08/28 12:55:24;;;;;;;;;;;27.90;99.90;;;;;;5189852;28;19901;-63
2022/08/28 12:57:58;;;;;;;;;;;27.30;99.90;;;;;;5196162;28;20186;-64
2022/08/28 13:00:37;;;;;;;;;;;27.80;99.90;;;;;;5195425;28;19911;-63
2022/08/28 13:03:08;;;;;;;;;;;27.90;99.90;;;;;;5195043;28;20078;-63
2022/08/28 13:05:39;;;;;;;;;;;28.70;99.90;;;;;;5184595;28;19913;-64
2022/08/28 13:08:20;;;;;;;;;;;29.10;99.90;;;;;;5187947;28;19905;-62
2022/08/28 13:10:51;;;;;;;;;;;30.20;99.90;;;;;;5196292;28;19919;-65
2022/08/28 13:13:36;;;;;;;;;;;30.50;99.90;;;;;;5195748;28;19900;-65
2022/08/28 13:16:11;;;;;;;;;;;32.00;99.90;;;;;;5166372;28;19917;-64
2022/08/28 13:18:42;;;;;;;;;;;32.60;99.90;;;;;;5175926;28;20144;-65
2022/08/28 13:21:15;;;;;;;;;;;33.10;99.90;;;;;;5175943;28;19902;-63
2022/08/28 13:23:50;;;;;;;;;;;34.40;99.90;;;;;;5175579;28;20183;-64
2022/08/28 13:26:27;;;;;;;;;;;32.30;99.90;;;;;;5175772;28;19909;-63
2022/08/28 13:29:03;;;;;;;;;;;30.80;99.90;;;;;;5178567;28;19901;-64
2022/08/28 13:31:37;;;;;;;;;;;31.30;99.90;;;;;;5175561;28;19905;-63
2022/08/28 13:34:19;;;;;;;;;;;31.70;99.90;;;;;;5174805;28;19901;-64
2022/08/28 13:36:56;;;;;;;;;;;31.80;99.90;;;;;;5172996;28;19907;-64
2022/08/28 13:39:28;;;;;;;;;;;32.60;99.90;;;;;;5175706;28;20074;-63
2022/08/28 13:42:13;;;;;;;;;;;30.30;99.90;;;;;;5190104;28;19901;-62
2022/08/28 13:44:55;;;;;;;;;;;28.70;99.90;;;;;;5174852;28;20117;-63
2022/08/28 13:47:28;;;;;;;;;;;28.00;99.90;;;;;;5175926;28;19924;-64
2022/08/28 13:49:59;;;;;;;;;;;27.10;99.90;;;;;;5174249;28;19901;-64
2022/08/28 13:52:32;;;;;;;;;;;26.30;99.90;;;;;;5175931;28;19929;-63
2022/08/28 13:55:05;;;;;;;;;;;25.70;99.90;;;;;;5179241;28;19927;-63
2022/08/28 13:57:41;;;;;;;;;;;25.50;99.90;;;;;;5179769;28;19901;-63
2022/08/28 14:00:13;;;;;;;;;;;25.30;99.90;;;;;;5177795;28;20094;-63
2022/08/28 14:05:34;;;;;;;;;;;25.10;99.90;;;;;;5176338;28;20260;-62
2022/08/28 14:08:05;;;;;;;;;;;25.10;99.90;;;;;;5184527;28;20234;-62
2022/08/28 14:10:38;;;;;;;;;;;25.10;99.90;;;;;;5184860;28;20098;-63
2022/08/28 14:13:09;;;;;;;;;;;24.70;99.90;;;;;;5166018;28;19902;-63
2022/08/28 14:15:40;;;;;;;;;;;24.50;99.90;;;;;;5189501;28;20218;-63
2022/08/28 14:18:11;;;;;;;;;;;24.40;99.90;;;;;;5157068;28;19908;-62
2022/08/28 14:20:42;;;;;;;;;;;24.60;99.90;;;;;;5189868;28;20488;-63
2022/08/28 14:23:16;;;;;;;;;;;24.50;99.90;;;;;;5158299;28;19945;-62
2022/08/28 14:25:47;;;;;;;;;;;24.40;99.90;;;;;;5156342;28;20254;-63
2022/08/28 14:28:19;;;;;;;;;;;24.40;99.90;;;;;;5157338;28;19908;-62
2022/08/28 14:30:51;;;;;;;;;;;24.50;99.90;;;;;;5158980;28;20100;-63
2022/08/28 14:33:22;;;;;;;;;;;24.70;99.90;;;;;;5157415;28;19909;-63
2022/08/28 14:35:53;;;;;;;;;;;24.90;99.90;;;;;;5158282;28;19940;-62
2022/08/28 14:38:25;;;;;;;;;;;24.90;99.90;;;;;;5190970;28;19908;-63
2022/08/28 14:40:56;;;;;;;;;;;24.90;99.90;;;;;;5157410;28;20203;-62
2022/08/28 14:43:27;;;;;;;;;;;24.80;99.90;;;;;;5168986;28;20221;-62
2022/08/28 14:45:59;;;;;;;;;;;24.60;99.90;;;;;;5174832;28;20376;-63
2022/08/28 14:48:30;;;;;;;;;;;24.40;99.90;;;;;;5188765;28;19924;-64
2022/08/28 14:51:03;;;;;;;;;;;24.50;99.90;;;;;;5158203;28;20147;-63
2022/08/28 14:53:37;;;;;;;;;;;24.50;99.90;;;;;;5158049;28;19908;-63
2022/08/28 14:56:11;;;;;;;;;;;24.50;99.90;;;;;;5155765;28;19908;-62
2022/08/28 14:58:42;;;;;;;;;;;24.50;99.90;;;;;;5172185;28;19909;-63
2022/08/28 15:01:20;;;;;;;;;;;24.70;99.90;;;;;;5155476;28;20123;-63
2022/08/28 15:03:51;;;;;;;;;;;24.70;99.90;;;;;;5155984;28;19905;-63
2022/08/28 15:06:23;;;;;;;;;;;24.80;99.90;;;;;;5162784;28;20210;-62
2022/08/28 15:08:54;;;;;;;;;;;24.90;99.90;;;;;;5158792;28;20324;-62
2022/08/28 15:11:26;;;;;;;;;;;24.70;99.90;;;;;;5156472;28;20250;-62
2022/08/28 15:13:57;;;;;;;;;;;24.50;99.90;;;;;;5167704;28;20052;-63